Aérodrome :
LOGIN :

S'inscrire | Disclaimer

   EN    FR    IT 

 










Légende :    VFR   VFR Marginal   IFR   IFR Intensif   IFR Très Intensif
Visi : 
Plafond : 
>= 8 km
>= 3000ft
5 à 8 km
1000 à 3000 ft
1500m à 5 km
500 à 1000 ft
800 à 1500m
200 à 500 ft
< 800m
< 200 ft
Symboles :   Orages  Brouillard  Fortes neiges  Fortes précipitations  Vent > 20 kt
SIGMETs :   Divers  Orages  Givrage  Turbulence  Onde Orograph.  Cendres Volcan.






- Altitude de l'aérodrome : 681 ft
- Code IATA : LBA


EGNM - Leeds Bradford

DERNIER METAR :
  • 271450Z 28022G34KT 9999 FEW026 05/M02 Q1002

METARs EXPIRÉS :
  • 271420Z 28022G33KT 9999 FEW026 05/M02 Q1001
  • 271350Z 28023KT 9999 FEW022 05/M02 Q1001
  • 271320Z 28023G34KT 9999 FEW020 04/M01 Q1000
  • 271250Z 28021KT 9999 FEW020 05/M01 Q1000
  • 271220Z 28020KT 9999 FEW020 04/M01 Q1000

TAF TAF EGNM
Valide du 27 à 12h jusqu'au 28 à 12h UTC


271059Z 2712/2812 28015KT 9999 FEW020
TEMPO 2712/2721 30018G28KT
BECMG 2721/2724 22008KT
BECMG 2806/2809 16012KT
TEMPO 2809/2812 15016G26KT 8000 -RA BKN008
PROB30
TEMPO 2810/2812 4000 RADZ BKN045
ATIS : +44 113 250 9696 (x2489)



MET'MAP, la Météo Aéronautique d'un coup d'oeil ! - Copyright ORBIFLY Décembre 2007 - Disclaimer

ORBIFLY MET'MAP TEAM :

Programmation & Développement : Alexandra Zaïnal
Sur une idée originale de : Baudouin d'Aumeries
Assistance à la programmation : Marc-Olivier Méhu
Soutien technique & logistique : Manuel Goepfert

Contact : metmap@orbifly.com




SOURCES & CREDITS :

   NOAA